sensor_id;sensor_type;location;lat;lon;timestamp;P1;durP1;ratioP1;P2;durP2;ratioP2
66145;SDS011;52948;60.040;30.320;2023-07-02T00:01:01;3.25;;;1.30;;
66145;SDS011;52948;60.040;30.320;2023-07-02T00:06:03;5.72;;;2.08;;
66145;SDS011;52948;60.040;30.320;2023-07-02T00:11:05;3.38;;;1.70;;
66145;SDS011;52948;60.040;30.320;2023-07-02T00:16:12;2.88;;;1.52;;
66145;SDS011;52948;60.040;30.320;2023-07-02T00:27:42;2.25;;;1.75;;
66145;SDS011;52948;60.040;30.320;2023-07-02T00:32:45;4.50;;;2.15;;
66145;SDS011;52948;60.040;30.320;2023-07-02T00:37:48;3.65;;;1.90;;
66145;SDS011;52948;60.040;30.320;2023-07-02T00:42:51;4.57;;;2.08;;
66145;SDS011;52948;60.040;30.320;2023-07-02T00:47:53;2.28;;;1.70;;
66145;SDS011;52948;60.040;30.320;2023-07-02T00:52:56;3.40;;;1.95;;
66145;SDS011;52948;60.040;30.320;2023-07-02T00:57:58;3.75;;;1.70;;
66145;SDS011;52948;60.040;30.320;2023-07-02T01:03:00;3.90;;;1.77;;
66145;SDS011;52948;60.040;30.320;2023-07-02T01:08:06;3.67;;;2.15;;
66145;SDS011;52948;60.040;30.320;2023-07-02T01:13:09;3.08;;;2.00;;
66145;SDS011;52948;60.040;30.320;2023-07-02T01:18:14;5.32;;;2.00;;
66145;SDS011;52948;60.040;30.320;2023-07-02T01:23:16;4.75;;;2.08;;
66145;SDS011;52948;60.040;30.320;2023-07-02T01:28:19;3.88;;;1.90;;
66145;SDS011;52948;60.040;30.320;2023-07-02T01:33:24;3.90;;;1.90;;
66145;SDS011;52948;60.040;30.320;2023-07-02T01:38:29;4.63;;;1.85;;
66145;SDS011;52948;60.040;30.320;2023-07-02T01:49:07;5.22;;;2.22;;
66145;SDS011;52948;60.040;30.320;2023-07-02T01:54:09;4.57;;;2.20;;
66145;SDS011;52948;60.040;30.320;2023-07-02T01:59:11;3.53;;;2.30;;
66145;SDS011;52948;60.040;30.320;2023-07-02T02:04:13;6.07;;;2.28;;
66145;SDS011;52948;60.040;30.320;2023-07-02T02:09:16;2.33;;;2.03;;
66145;SDS011;52948;60.040;30.320;2023-07-02T02:14:18;4.55;;;2.15;;
66145;SDS011;52948;60.040;30.320;2023-07-02T02:19:20;2.90;;;2.05;;
66145;SDS011;52948;60.040;30.320;2023-07-02T02:24:22;3.78;;;2.10;;
66145;SDS011;52948;60.040;30.320;2023-07-02T02:29:24;4.75;;;2.10;;
66145;SDS011;52948;60.040;30.320;2023-07-02T02:34:27;5.57;;;2.00;;
66145;SDS011;52948;60.040;30.320;2023-07-02T02:39:31;4.07;;;1.73;;
66145;SDS011;52948;60.040;30.320;2023-07-02T02:44:34;4.03;;;1.48;;
66145;SDS011;52948;60.040;30.320;2023-07-02T02:49:37;2.47;;;1.67;;
66145;SDS011;52948;60.040;30.320;2023-07-02T02:54:41;4.70;;;1.85;;
66145;SDS011;52948;60.040;30.320;2023-07-02T02:59:43;3.20;;;1.95;;
66145;SDS011;52948;60.040;30.320;2023-07-02T03:04:45;4.45;;;2.10;;
66145;SDS011;52948;60.040;30.320;2023-07-02T03:09:47;4.10;;;2.20;;
66145;SDS011;52948;60.040;30.320;2023-07-02T03:14:49;2.53;;;1.98;;
66145;SDS011;52948;60.040;30.320;2023-07-02T03:19:54;4.13;;;2.40;;
66145;SDS011;52948;60.040;30.320;2023-07-02T03:24:57;4.45;;;2.28;;
66145;SDS011;52948;60.040;30.320;2023-07-02T03:29:59;3.75;;;2.53;;
66145;SDS011;52948;60.040;30.320;2023-07-02T03:35:01;3.50;;;2.53;;
66145;SDS011;52948;60.040;30.320;2023-07-02T03:40:03;4.07;;;2.20;;
66145;SDS011;52948;60.040;30.320;2023-07-02T03:45:06;4.10;;;2.38;;
66145;SDS011;52948;60.040;30.320;2023-07-02T03:50:09;4.82;;;2.30;;
66145;SDS011;52948;60.040;30.320;2023-07-02T03:55:11;5.13;;;2.47;;
66145;SDS011;52948;60.040;30.320;2023-07-02T04:00:14;3.15;;;2.22;;
66145;SDS011;52948;60.040;30.320;2023-07-02T04:05:19;3.97;;;2.50;;
66145;SDS011;52948;60.040;30.320;2023-07-02T04:10:21;5.07;;;2.50;;
66145;SDS011;52948;60.040;30.320;2023-07-02T04:15:24;4.68;;;2.55;;
66145;SDS011;52948;60.040;30.320;2023-07-02T04:20:27;1.98;;;1.67;;
66145;SDS011;52948;60.040;30.320;2023-07-02T04:25:30;1.63;;;0.85;;
66145;SDS011;52948;60.040;30.320;2023-07-02T04:30:32;2.97;;;1.58;;
66145;SDS011;52948;60.040;30.320;2023-07-02T04:35:34;2.60;;;1.40;;
66145;SDS011;52948;60.040;30.320;2023-07-02T04:40:36;1.20;;;1.10;;
66145;SDS011;52948;60.040;30.320;2023-07-02T04:45:39;1.60;;;1.20;;
66145;SDS011;52948;60.040;30.320;2023-07-02T04:50:41;1.83;;;1.33;;
66145;SDS011;52948;60.040;30.320;2023-07-02T04:55:43;2.70;;;1.48;;
66145;SDS011;52948;60.040;30.320;2023-07-02T05:00:46;2.97;;;1.80;;
66145;SDS011;52948;60.040;30.320;2023-07-02T05:05:48;5.05;;;2.53;;
66145;SDS011;52948;60.040;30.320;2023-07-02T05:10:50;4.03;;;2.40;;
66145;SDS011;52948;60.040;30.320;2023-07-02T05:15:52;5.20;;;2.92;;
66145;SDS011;52948;60.040;30.320;2023-07-02T05:20:55;3.90;;;2.72;;
66145;SDS011;52948;60.040;30.320;2023-07-02T05:25:57;4.10;;;2.55;;
66145;SDS011;52948;60.040;30.320;2023-07-02T05:30:59;5.90;;;2.75;;
66145;SDS011;52948;60.040;30.320;2023-07-02T05:36:01;3.33;;;2.30;;
66145;SDS011;52948;60.040;30.320;2023-07-02T05:41:03;5.10;;;2.90;;
66145;SDS011;52948;60.040;30.320;2023-07-02T05:46:06;6.03;;;2.78;;
66145;SDS011;52948;60.040;30.320;2023-07-02T05:51:08;4.32;;;3.05;;
66145;SDS011;52948;60.040;30.320;2023-07-02T05:56:10;3.25;;;2.45;;
66145;SDS011;52948;60.040;30.320;2023-07-02T06:01:12;7.57;;;3.17;;
66145;SDS011;52948;60.040;30.320;2023-07-02T06:06:16;5.32;;;2.78;;
66145;SDS011;52948;60.040;30.320;2023-07-02T06:11:18;4.05;;;3.05;;
66145;SDS011;52948;60.040;30.320;2023-07-02T06:16:20;4.38;;;3.20;;
66145;SDS011;52948;60.040;30.320;2023-07-02T06:21:22;3.58;;;2.83;;
66145;SDS011;52948;60.040;30.320;2023-07-02T06:26:26;5.90;;;3.20;;
66145;SDS011;52948;60.040;30.320;2023-07-02T06:31:29;4.97;;;2.72;;
66145;SDS011;52948;60.040;30.320;2023-07-02T06:36:31;7.00;;;3.10;;
66145;SDS011;52948;60.040;30.320;2023-07-02T06:41:33;5.32;;;2.58;;
66145;SDS011;52948;60.040;30.320;2023-07-02T06:46:35;6.45;;;2.92;;
66145;SDS011;52948;60.040;30.320;2023-07-02T06:51:37;3.70;;;2.53;;
66145;SDS011;52948;60.040;30.320;2023-07-02T06:56:40;3.10;;;2.30;;
66145;SDS011;52948;60.040;30.320;2023-07-02T07:01:42;4.30;;;2.08;;
66145;SDS011;52948;60.040;30.320;2023-07-02T07:06:44;2.38;;;1.58;;
66145;SDS011;52948;60.040;30.320;2023-07-02T07:11:46;2.40;;;1.40;;
66145;SDS011;52948;60.040;30.320;2023-07-02T07:16:49;5.40;;;1.98;;
66145;SDS011;52948;60.040;30.320;2023-07-02T07:21:51;3.42;;;2.60;;
66145;SDS011;52948;60.040;30.320;2023-07-02T07:26:53;3.78;;;2.53;;
66145;SDS011;52948;60.040;30.320;2023-07-02T07:31:55;5.88;;;3.10;;
66145;SDS011;52948;60.040;30.320;2023-07-02T07:36:58;8.43;;;3.42;;
66145;SDS011;52948;60.040;30.320;2023-07-02T07:42:00;4.85;;;2.80;;
66145;SDS011;52948;60.040;30.320;2023-07-02T07:47:02;5.22;;;3.30;;
66145;SDS011;52948;60.040;30.320;2023-07-02T07:52:05;5.05;;;3.03;;
66145;SDS011;52948;60.040;30.320;2023-07-02T07:57:08;6.40;;;3.08;;
66145;SDS011;52948;60.040;30.320;2023-07-02T08:02:10;3.85;;;2.85;;
66145;SDS011;52948;60.040;30.320;2023-07-02T08:07:13;3.78;;;2.90;;
66145;SDS011;52948;60.040;30.320;2023-07-02T08:12:15;4.80;;;3.30;;
66145;SDS011;52948;60.040;30.320;2023-07-02T08:17:17;4.07;;;3.03;;
66145;SDS011;52948;60.040;30.320;2023-07-02T08:22:19;7.43;;;3.17;;
66145;SDS011;52948;60.040;30.320;2023-07-02T08:27:23;4.88;;;2.75;;
66145;SDS011;52948;60.040;30.320;2023-07-02T08:32:26;5.55;;;3.17;;
66145;SDS011;52948;60.040;30.320;2023-07-02T08:37:28;5.65;;;3.08;;
66145;SDS011;52948;60.040;30.320;2023-07-02T08:42:34;6.18;;;3.05;;
66145;SDS011;52948;60.040;30.320;2023-07-02T08:47:37;6.55;;;3.00;;
66145;SDS011;52948;60.040;30.320;2023-07-02T08:52:40;5.13;;;2.92;;
66145;SDS011;52948;60.040;30.320;2023-07-02T08:57:49;6.63;;;2.72;;
66145;SDS011;52948;60.040;30.320;2023-07-02T09:02:55;3.85;;;2.65;;
66145;SDS011;52948;60.040;30.320;2023-07-02T09:07:58;4.82;;;3.13;;
66145;SDS011;52948;60.040;30.320;2023-07-02T09:13:04;6.63;;;3.35;;
66145;SDS011;52948;60.040;30.320;2023-07-02T09:23:17;3.35;;;2.80;;
66145;SDS011;52948;60.040;30.320;2023-07-02T09:28:21;4.75;;;3.10;;
66145;SDS011;52948;60.040;30.320;2023-07-02T09:33:28;4.55;;;3.10;;
66145;SDS011;52948;60.040;30.320;2023-07-02T09:43:35;4.88;;;2.80;;
66145;SDS011;52948;60.040;30.320;2023-07-02T09:48:37;4.88;;;3.05;;
66145;SDS011;52948;60.040;30.320;2023-07-02T09:53:40;3.95;;;3.20;;
66145;SDS011;52948;60.040;30.320;2023-07-02T09:58:44;5.20;;;3.20;;
66145;SDS011;52948;60.040;30.320;2023-07-02T10:03:47;3.58;;;3.13;;
66145;SDS011;52948;60.040;30.320;2023-07-02T10:08:53;5.57;;;3.50;;
66145;SDS011;52948;60.040;30.320;2023-07-02T10:13:59;4.30;;;3.03;;
66145;SDS011;52948;60.040;30.320;2023-07-02T10:19:12;3.42;;;2.53;;
66145;SDS011;52948;60.040;30.320;2023-07-02T10:24:15;3.42;;;2.42;;
66145;SDS011;52948;60.040;30.320;2023-07-02T10:29:21;3.92;;;2.60;;
66145;SDS011;52948;60.040;30.320;2023-07-02T10:34:32;3.87;;;2.87;;
66145;SDS011;52948;60.040;30.320;2023-07-02T10:39:38;4.13;;;2.53;;
66145;SDS011;52948;60.040;30.320;2023-07-02T10:44:52;4.13;;;2.80;;
66145;SDS011;52948;60.040;30.320;2023-07-02T10:49:54;3.55;;;2.25;;
66145;SDS011;52948;60.040;30.320;2023-07-02T10:54:57;5.22;;;2.55;;
66145;SDS011;52948;60.040;30.320;2023-07-02T11:00:06;4.55;;;2.85;;
66145;SDS011;52948;60.040;30.320;2023-07-02T11:05:10;4.00;;;2.72;;
66145;SDS011;52948;60.040;30.320;2023-07-02T11:10:21;3.25;;;2.50;;
66145;SDS011;52948;60.040;30.320;2023-07-02T11:15:23;4.57;;;2.72;;
66145;SDS011;52948;60.040;30.320;2023-07-02T11:20:26;3.15;;;2.30;;
66145;SDS011;52948;60.040;30.320;2023-07-02T11:25:37;3.72;;;2.88;;
66145;SDS011;52948;60.040;30.320;2023-07-02T11:30:45;3.45;;;2.17;;
66145;SDS011;52948;60.040;30.320;2023-07-02T11:35:47;4.03;;;2.25;;
66145;SDS011;52948;60.040;30.320;2023-07-02T11:40:50;3.63;;;2.50;;
66145;SDS011;52948;60.040;30.320;2023-07-02T11:45:52;2.95;;;2.50;;
66145;SDS011;52948;60.040;30.320;2023-07-02T11:50:55;3.35;;;1.95;;
66145;SDS011;52948;60.040;30.320;2023-07-02T11:55:57;2.80;;;1.92;;
66145;SDS011;52948;60.040;30.320;2023-07-02T12:01:00;4.10;;;2.53;;
66145;SDS011;52948;60.040;30.320;2023-07-02T12:06:05;4.57;;;2.50;;
66145;SDS011;52948;60.040;30.320;2023-07-02T12:11:07;2.80;;;2.60;;
66145;SDS011;52948;60.040;30.320;2023-07-02T12:16:09;5.75;;;2.78;;
66145;SDS011;52948;60.040;30.320;2023-07-02T12:21:12;5.95;;;3.10;;
66145;SDS011;52948;60.040;30.320;2023-07-02T12:26:14;6.22;;;3.08;;
66145;SDS011;52948;60.040;30.320;2023-07-02T12:31:16;2.92;;;2.35;;
66145;SDS011;52948;60.040;30.320;2023-07-02T12:36:18;3.03;;;2.55;;
66145;SDS011;52948;60.040;30.320;2023-07-02T12:41:21;4.95;;;2.50;;
66145;SDS011;52948;60.040;30.320;2023-07-02T12:46:24;3.53;;;2.53;;
66145;SDS011;52948;60.040;30.320;2023-07-02T12:51:28;3.05;;;2.70;;
66145;SDS011;52948;60.040;30.320;2023-07-02T12:56:31;3.67;;;2.40;;
66145;SDS011;52948;60.040;30.320;2023-07-02T13:01:33;3.15;;;2.55;;
66145;SDS011;52948;60.040;30.320;2023-07-02T13:06:35;5.03;;;2.67;;
66145;SDS011;52948;60.040;30.320;2023-07-02T13:11:41;3.00;;;2.70;;
66145;SDS011;52948;60.040;30.320;2023-07-02T13:16:44;6.32;;;2.67;;
66145;SDS011;52948;60.040;30.320;2023-07-02T13:21:46;3.58;;;2.70;;
66145;SDS011;52948;60.040;30.320;2023-07-02T13:26:49;5.68;;;3.38;;
66145;SDS011;52948;60.040;30.320;2023-07-02T13:31:51;3.40;;;2.80;;
66145;SDS011;52948;60.040;30.320;2023-07-02T13:36:53;4.15;;;2.80;;
66145;SDS011;52948;60.040;30.320;2023-07-02T13:41:56;3.88;;;2.50;;
66145;SDS011;52948;60.040;30.320;2023-07-02T13:46:58;3.25;;;2.83;;
66145;SDS011;52948;60.040;30.320;2023-07-02T13:52:01;6.05;;;2.58;;
66145;SDS011;52948;60.040;30.320;2023-07-02T13:57:03;4.25;;;2.92;;
66145;SDS011;52948;60.040;30.320;2023-07-02T14:02:05;4.70;;;3.25;;
66145;SDS011;52948;60.040;30.320;2023-07-02T14:07:07;4.00;;;3.00;;
66145;SDS011;52948;60.040;30.320;2023-07-02T14:12:10;4.32;;;3.20;;
66145;SDS011;52948;60.040;30.320;2023-07-02T14:17:13;4.20;;;3.13;;
66145;SDS011;52948;60.040;30.320;2023-07-02T14:22:15;6.25;;;3.50;;
66145;SDS011;52948;60.040;30.320;2023-07-02T14:27:18;4.25;;;3.25;;
66145;SDS011;52948;60.040;30.320;2023-07-02T14:32:20;6.15;;;3.55;;
66145;SDS011;52948;60.040;30.320;2023-07-02T14:37:22;5.25;;;3.88;;
66145;SDS011;52948;60.040;30.320;2023-07-02T14:42:25;3.63;;;2.88;;
66145;SDS011;52948;60.040;30.320;2023-07-02T14:47:27;2.75;;;2.50;;
66145;SDS011;52948;60.040;30.320;2023-07-02T14:52:29;2.63;;;2.35;;
66145;SDS011;52948;60.040;30.320;2023-07-02T14:57:32;2.40;;;2.05;;
66145;SDS011;52948;60.040;30.320;2023-07-02T15:02:34;7.85;;;2.50;;
66145;SDS011;52948;60.040;30.320;2023-07-02T15:07:36;4.05;;;2.33;;
66145;SDS011;52948;60.040;30.320;2023-07-02T15:12:38;6.20;;;2.42;;
66145;SDS011;52948;60.040;30.320;2023-07-02T15:17:40;5.82;;;2.58;;
66145;SDS011;52948;60.040;30.320;2023-07-02T15:22:43;5.78;;;2.85;;
66145;SDS011;52948;60.040;30.320;2023-07-02T15:27:46;2.50;;;2.28;;
66145;SDS011;52948;60.040;30.320;2023-07-02T15:32:49;3.85;;;2.70;;
66145;SDS011;52948;60.040;30.320;2023-07-02T15:37:51;3.92;;;2.80;;
66145;SDS011;52948;60.040;30.320;2023-07-02T15:42:53;4.82;;;2.80;;
66145;SDS011;52948;60.040;30.320;2023-07-02T15:47:55;4.05;;;3.60;;
66145;SDS011;52948;60.040;30.320;2023-07-02T15:52:58;4.82;;;3.20;;
66145;SDS011;52948;60.040;30.320;2023-07-02T15:58:01;3.70;;;3.10;;
66145;SDS011;52948;60.040;30.320;2023-07-02T16:03:03;4.55;;;3.13;;
66145;SDS011;52948;60.040;30.320;2023-07-02T16:08:05;6.97;;;3.53;;
66145;SDS011;52948;60.040;30.320;2023-07-02T16:13:08;4.68;;;3.58;;
66145;SDS011;52948;60.040;30.320;2023-07-02T16:18:10;5.13;;;3.10;;
66145;SDS011;52948;60.040;30.320;2023-07-02T16:23:12;5.72;;;3.47;;
66145;SDS011;52948;60.040;30.320;2023-07-02T16:28:15;5.32;;;3.30;;
66145;SDS011;52948;60.040;30.320;2023-07-02T16:33:17;6.88;;;3.30;;
66145;SDS011;52948;60.040;30.320;2023-07-02T16:38:20;6.82;;;3.30;;
66145;SDS011;52948;60.040;30.320;2023-07-02T16:43:22;4.13;;;3.20;;
66145;SDS011;52948;60.040;30.320;2023-07-02T16:48:24;4.10;;;3.38;;
66145;SDS011;52948;60.040;30.320;2023-07-02T16:53:27;3.40;;;2.92;;
66145;SDS011;52948;60.040;30.320;2023-07-02T16:58:30;5.03;;;3.25;;
66145;SDS011;52948;60.040;30.320;2023-07-02T17:03:33;10.88;;;3.85;;
66145;SDS011;52948;60.040;30.320;2023-07-02T17:08:37;8.02;;;3.70;;
66145;SDS011;52948;60.040;30.320;2023-07-02T17:13:40;6.93;;;3.53;;
66145;SDS011;52948;60.040;30.320;2023-07-02T17:18:42;5.43;;;3.25;;
66145;SDS011;52948;60.040;30.320;2023-07-02T17:23:44;6.68;;;3.75;;
66145;SDS011;52948;60.040;30.320;2023-07-02T17:28:47;5.55;;;3.88;;
66145;SDS011;52948;60.040;30.320;2023-07-02T17:33:49;4.88;;;3.35;;
66145;SDS011;52948;60.040;30.320;2023-07-02T17:38:52;5.65;;;3.42;;
66145;SDS011;52948;60.040;30.320;2023-07-02T17:43:56;6.93;;;3.97;;
66145;SDS011;52948;60.040;30.320;2023-07-02T17:48:58;5.50;;;3.88;;
66145;SDS011;52948;60.040;30.320;2023-07-02T17:54:04;4.43;;;3.40;;
66145;SDS011;52948;60.040;30.320;2023-07-02T18:04:10;8.15;;;4.22;;
66145;SDS011;52948;60.040;30.320;2023-07-02T18:09:13;4.80;;;3.55;;
66145;SDS011;52948;60.040;30.320;2023-07-02T18:14:16;6.45;;;3.35;;
66145;SDS011;52948;60.040;30.320;2023-07-02T18:19:18;5.25;;;3.42;;
66145;SDS011;52948;60.040;30.320;2023-07-02T18:24:32;7.25;;;4.55;;
66145;SDS011;52948;60.040;30.320;2023-07-02T18:29:37;5.20;;;3.22;;
66145;SDS011;52948;60.040;30.320;2023-07-02T18:34:40;5.25;;;3.40;;
66145;SDS011;52948;60.040;30.320;2023-07-02T18:39:42;4.97;;;3.53;;
66145;SDS011;52948;60.040;30.320;2023-07-02T18:44:45;5.30;;;3.63;;
66145;SDS011;52948;60.040;30.320;2023-07-02T18:49:49;6.07;;;3.53;;
66145;SDS011;52948;60.040;30.320;2023-07-02T18:54:52;5.32;;;4.07;;
66145;SDS011;52948;60.040;30.320;2023-07-02T18:59:55;4.97;;;3.83;;
66145;SDS011;52948;60.040;30.320;2023-07-02T19:04:58;5.07;;;4.05;;
66145;SDS011;52948;60.040;30.320;2023-07-02T19:10:01;5.18;;;3.60;;
66145;SDS011;52948;60.040;30.320;2023-07-02T19:15:06;6.80;;;4.13;;
66145;SDS011;52948;60.040;30.320;2023-07-02T19:20:09;5.88;;;3.85;;
66145;SDS011;52948;60.040;30.320;2023-07-02T19:25:12;6.28;;;3.80;;
66145;SDS011;52948;60.040;30.320;2023-07-02T19:30:14;5.75;;;4.38;;
66145;SDS011;52948;60.040;30.320;2023-07-02T19:35:17;8.23;;;3.72;;
66145;SDS011;52948;60.040;30.320;2023-07-02T19:40:19;6.47;;;4.13;;
66145;SDS011;52948;60.040;30.320;2023-07-02T19:45:25;7.13;;;3.88;;
66145;SDS011;52948;60.040;30.320;2023-07-02T19:50:27;6.07;;;3.47;;
66145;SDS011;52948;60.040;30.320;2023-07-02T19:55:29;7.55;;;5.10;;
66145;SDS011;52948;60.040;30.320;2023-07-02T20:00:32;8.10;;;4.82;;
66145;SDS011;52948;60.040;30.320;2023-07-02T20:05:34;7.40;;;4.15;;
66145;SDS011;52948;60.040;30.320;2023-07-02T20:10:36;4.53;;;3.33;;
66145;SDS011;52948;60.040;30.320;2023-07-02T20:15:39;5.07;;;3.13;;
66145;SDS011;52948;60.040;30.320;2023-07-02T20:20:41;4.95;;;2.97;;
66145;SDS011;52948;60.040;30.320;2023-07-02T20:25:43;6.68;;;3.20;;
66145;SDS011;52948;60.040;30.320;2023-07-02T20:30:51;4.43;;;3.10;;
66145;SDS011;52948;60.040;30.320;2023-07-02T20:35:56;5.07;;;3.10;;
66145;SDS011;52948;60.040;30.320;2023-07-02T20:40:59;6.20;;;3.00;;
66145;SDS011;52948;60.040;30.320;2023-07-02T20:46:11;4.55;;;3.22;;
66145;SDS011;52948;60.040;30.320;2023-07-02T20:51:13;4.45;;;2.75;;
66145;SDS011;52948;60.040;30.320;2023-07-02T20:56:15;4.03;;;2.83;;
66145;SDS011;52948;60.040;30.320;2023-07-02T21:01:18;5.28;;;3.05;;
66145;SDS011;52948;60.040;30.320;2023-07-02T21:06:20;5.38;;;3.03;;
66145;SDS011;52948;60.040;30.320;2023-07-02T21:11:24;4.97;;;2.63;;
66145;SDS011;52948;60.040;30.320;2023-07-02T21:16:27;3.90;;;2.78;;
66145;SDS011;52948;60.040;30.320;2023-07-02T21:21:29;5.45;;;3.20;;
66145;SDS011;52948;60.040;30.320;2023-07-02T21:26:32;5.20;;;3.25;;
66145;SDS011;52948;60.040;30.320;2023-07-02T21:31:34;5.05;;;3.00;;
66145;SDS011;52948;60.040;30.320;2023-07-02T21:36:39;5.93;;;3.47;;
66145;SDS011;52948;60.040;30.320;2023-07-02T21:41:41;4.32;;;2.70;;
66145;SDS011;52948;60.040;30.320;2023-07-02T21:46:43;4.07;;;2.58;;
66145;SDS011;52948;60.040;30.320;2023-07-02T21:51:48;4.65;;;3.00;;
66145;SDS011;52948;60.040;30.320;2023-07-02T21:56:53;3.80;;;2.55;;
66145;SDS011;52948;60.040;30.320;2023-07-02T22:02:01;5.55;;;2.72;;
66145;SDS011;52948;60.040;30.320;2023-07-02T22:07:08;8.82;;;3.25;;
66145;SDS011;52948;60.040;30.320;2023-07-02T22:12:12;5.97;;;3.17;;
66145;SDS011;52948;60.040;30.320;2023-07-02T22:17:15;2.65;;;2.42;;
66145;SDS011;52948;60.040;30.320;2023-07-02T22:22:18;3.00;;;2.28;;
66145;SDS011;52948;60.040;30.320;2023-07-02T22:27:20;4.07;;;1.83;;
66145;SDS011;52948;60.040;30.320;2023-07-02T22:32:24;2.97;;;1.70;;
66145;SDS011;52948;60.040;30.320;2023-07-02T22:37:27;3.40;;;1.90;;
66145;SDS011;52948;60.040;30.320;2023-07-02T22:42:34;1.73;;;1.55;;
66145;SDS011;52948;60.040;30.320;2023-07-02T22:47:37;5.47;;;1.80;;
66145;SDS011;52948;60.040;30.320;2023-07-02T22:52:40;1.92;;;1.60;;
66145;SDS011;52948;60.040;30.320;2023-07-02T22:57:46;2.47;;;1.60;;
66145;SDS011;52948;60.040;30.320;2023-07-02T23:02:48;1.90;;;1.38;;
66145;SDS011;52948;60.040;30.320;2023-07-02T23:07:51;1.80;;;1.10;;
66145;SDS011;52948;60.040;30.320;2023-07-02T23:12:54;1.00;;;1.00;;
66145;SDS011;52948;60.040;30.320;2023-07-02T23:17:57;7.50;;;1.27;;
66145;SDS011;52948;60.040;30.320;2023-07-02T23:22:59;1.00;;;0.90;;
66145;SDS011;52948;60.040;30.320;2023-07-02T23:28:04;2.55;;;1.00;;
66145;SDS011;52948;60.040;30.320;2023-07-02T23:33:08;1.00;;;0.90;;
66145;SDS011;52948;60.040;30.320;2023-07-02T23:38:14;1.67;;;1.00;;
66145;SDS011;52948;60.040;30.320;2023-07-02T23:43:16;1.20;;;1.08;;
66145;SDS011;52948;60.040;30.320;2023-07-02T23:48:18;1.63;;;1.30;;
66145;SDS011;52948;60.040;30.320;2023-07-02T23:53:20;1.20;;;1.10;;
66145;SDS011;52948;60.040;30.320;2023-07-02T23:58:22;1.58;;;0.95;;
